sensor_id;sensor_type;location;lat;lon;timestamp;P1;durP1;ratioP1;P2;durP2;ratioP2
21010;SDS011;10663;42.714;23.274;2022-08-19T00:00:20;8.70;;;5.93;;
21010;SDS011;10663;42.714;23.274;2022-08-19T00:01:51;7.65;;;6.13;;
21010;SDS011;10663;42.714;23.274;2022-08-19T00:03:24;5.63;;;5.13;;
21010;SDS011;10663;42.714;23.274;2022-08-19T00:04:54;8.23;;;5.63;;
21010;SDS011;10663;42.714;23.274;2022-08-19T00:06:26;7.18;;;5.78;;
21010;SDS011;10663;42.714;23.274;2022-08-19T00:07:58;6.30;;;5.70;;
21010;SDS011;10663;42.714;23.274;2022-08-19T00:09:29;9.05;;;5.80;;
21010;SDS011;10663;42.714;23.274;2022-08-19T00:11:00;9.80;;;5.40;;
21010;SDS011;10663;42.714;23.274;2022-08-19T00:12:31;7.18;;;6.25;;
21010;SDS011;10663;42.714;23.274;2022-08-19T00:14:02;7.00;;;5.95;;
21010;SDS011;10663;42.714;23.274;2022-08-19T00:15:34;6.93;;;6.22;;
21010;SDS011;10663;42.714;23.274;2022-08-19T00:17:05;6.77;;;5.83;;
21010;SDS011;10663;42.714;23.274;2022-08-19T00:18:37;6.50;;;5.80;;
21010;SDS011;10663;42.714;23.274;2022-08-19T00:20:09;6.85;;;6.15;;
21010;SDS011;10663;42.714;23.274;2022-08-19T00:21:41;7.72;;;6.38;;
21010;SDS011;10663;42.714;23.274;2022-08-19T00:23:13;6.55;;;5.63;;
21010;SDS011;10663;42.714;23.274;2022-08-19T00:24:45;7.33;;;6.27;;
21010;SDS011;10663;42.714;23.274;2022-08-19T00:26:16;8.32;;;6.10;;
21010;SDS011;10663;42.714;23.274;2022-08-19T00:27:46;6.88;;;6.20;;
21010;SDS011;10663;42.714;23.274;2022-08-19T00:29:18;6.40;;;5.80;;
21010;SDS011;10663;42.714;23.274;2022-08-19T00:30:50;8.23;;;6.43;;
21010;SDS011;10663;42.714;23.274;2022-08-19T00:32:22;8.25;;;6.38;;
21010;SDS011;10663;42.714;23.274;2022-08-19T00:33:53;7.25;;;6.28;;
21010;SDS011;10663;42.714;23.274;2022-08-19T00:35:24;6.50;;;5.90;;
21010;SDS011;10663;42.714;23.274;2022-08-19T00:36:57;6.65;;;5.82;;
21010;SDS011;10663;42.714;23.274;2022-08-19T00:38:28;6.75;;;6.05;;
21010;SDS011;10663;42.714;23.274;2022-08-19T00:39:59;7.07;;;6.38;;
21010;SDS011;10663;42.714;23.274;2022-08-19T00:41:31;8.00;;;6.03;;
21010;SDS011;10663;42.714;23.274;2022-08-19T00:43:07;7.22;;;6.30;;
21010;SDS011;10663;42.714;23.274;2022-08-19T00:44:40;8.88;;;6.25;;
21010;SDS011;10663;42.714;23.274;2022-08-19T00:46:13;7.10;;;5.95;;
21010;SDS011;10663;42.714;23.274;2022-08-19T00:47:44;8.93;;;6.10;;
21010;SDS011;10663;42.714;23.274;2022-08-19T00:49:26;9.15;;;6.72;;
21010;SDS011;10663;42.714;23.274;2022-08-19T00:50:58;8.55;;;6.18;;
21010;SDS011;10663;42.714;23.274;2022-08-19T00:52:30;7.65;;;6.60;;
21010;SDS011;10663;42.714;23.274;2022-08-19T00:54:05;7.25;;;6.55;;
21010;SDS011;10663;42.714;23.274;2022-08-19T00:55:35;8.88;;;6.38;;
21010;SDS011;10663;42.714;23.274;2022-08-19T00:57:10;9.80;;;6.55;;
21010;SDS011;10663;42.714;23.274;2022-08-19T00:58:45;8.50;;;6.13;;
21010;SDS011;10663;42.714;23.274;2022-08-19T01:00:17;7.75;;;6.50;;
21010;SDS011;10663;42.714;23.274;2022-08-19T01:01:49;7.25;;;6.47;;
21010;SDS011;10663;42.714;23.274;2022-08-19T01:03:20;7.73;;;6.40;;
21010;SDS011;10663;42.714;23.274;2022-08-19T01:04:52;9.23;;;6.53;;
21010;SDS011;10663;42.714;23.274;2022-08-19T01:06:22;6.80;;;6.05;;
21010;SDS011;10663;42.714;23.274;2022-08-19T01:07:54;8.15;;;6.30;;
21010;SDS011;10663;42.714;23.274;2022-08-19T01:09:29;8.50;;;6.38;;
21010;SDS011;10663;42.714;23.274;2022-08-19T01:11:00;8.63;;;6.93;;
21010;SDS011;10663;42.714;23.274;2022-08-19T01:12:31;9.05;;;6.65;;
21010;SDS011;10663;42.714;23.274;2022-08-19T01:14:02;7.90;;;6.68;;
21010;SDS011;10663;42.714;23.274;2022-08-19T01:15:39;8.13;;;6.18;;
21010;SDS011;10663;42.714;23.274;2022-08-19T01:17:13;7.00;;;6.30;;
21010;SDS011;10663;42.714;23.274;2022-08-19T01:18:46;9.15;;;6.57;;
21010;SDS011;10663;42.714;23.274;2022-08-19T01:20:19;9.57;;;6.85;;
21010;SDS011;10663;42.714;23.274;2022-08-19T01:21:55;7.85;;;6.65;;
21010;SDS011;10663;42.714;23.274;2022-08-19T01:23:36;7.47;;;6.32;;
21010;SDS011;10663;42.714;23.274;2022-08-19T01:25:17;7.70;;;6.20;;
21010;SDS011;10663;42.714;23.274;2022-08-19T01:26:50;8.57;;;6.23;;
21010;SDS011;10663;42.714;23.274;2022-08-19T01:28:23;9.25;;;6.85;;
21010;SDS011;10663;42.714;23.274;2022-08-19T01:29:56;7.50;;;6.78;;
21010;SDS011;10663;42.714;23.274;2022-08-19T01:31:28;7.63;;;6.70;;
21010;SDS011;10663;42.714;23.274;2022-08-19T01:33:03;7.65;;;6.95;;
21010;SDS011;10663;42.714;23.274;2022-08-19T01:34:35;7.45;;;6.50;;
21010;SDS011;10663;42.714;23.274;2022-08-19T01:36:11;8.57;;;7.22;;
21010;SDS011;10663;42.714;23.274;2022-08-19T01:39:19;8.35;;;6.50;;
21010;SDS011;10663;42.714;23.274;2022-08-19T01:40:52;7.22;;;6.53;;
21010;SDS011;10663;42.714;23.274;2022-08-19T01:42:22;8.38;;;6.60;;
21010;SDS011;10663;42.714;23.274;2022-08-19T01:43:53;7.50;;;6.47;;
21010;SDS011;10663;42.714;23.274;2022-08-19T01:45:25;7.85;;;6.88;;
21010;SDS011;10663;42.714;23.274;2022-08-19T01:46:58;10.15;;;6.93;;
21010;SDS011;10663;42.714;23.274;2022-08-19T01:48:37;9.27;;;6.90;;
21010;SDS011;10663;42.714;23.274;2022-08-19T01:50:10;8.20;;;6.50;;
21010;SDS011;10663;42.714;23.274;2022-08-19T01:51:42;9.30;;;6.95;;
21010;SDS011;10663;42.714;23.274;2022-08-19T01:53:13;8.67;;;6.90;;
21010;SDS011;10663;42.714;23.274;2022-08-19T01:54:43;7.93;;;7.13;;
21010;SDS011;10663;42.714;23.274;2022-08-19T01:56:14;7.72;;;6.93;;
21010;SDS011;10663;42.714;23.274;2022-08-19T01:57:48;8.60;;;7.03;;
21010;SDS011;10663;42.714;23.274;2022-08-19T01:59:22;9.82;;;7.30;;
21010;SDS011;10663;42.714;23.274;2022-08-19T02:00:54;7.80;;;7.00;;
21010;SDS011;10663;42.714;23.274;2022-08-19T02:02:25;7.80;;;7.03;;
21010;SDS011;10663;42.714;23.274;2022-08-19T02:03:55;8.27;;;6.88;;
21010;SDS011;10663;42.714;23.274;2022-08-19T02:05:26;8.63;;;7.40;;
21010;SDS011;10663;42.714;23.274;2022-08-19T02:06:59;9.05;;;6.90;;
21010;SDS011;10663;42.714;23.274;2022-08-19T02:08:30;8.68;;;7.13;;
21010;SDS011;10663;42.714;23.274;2022-08-19T02:10:07;8.40;;;7.00;;
21010;SDS011;10663;42.714;23.274;2022-08-19T02:11:42;10.13;;;7.22;;
21010;SDS011;10663;42.714;23.274;2022-08-19T02:13:13;7.63;;;6.82;;
21010;SDS011;10663;42.714;23.274;2022-08-19T02:14:44;8.18;;;7.10;;
21010;SDS011;10663;42.714;23.274;2022-08-19T02:16:18;8.02;;;6.80;;
21010;SDS011;10663;42.714;23.274;2022-08-19T02:17:49;11.27;;;7.25;;
21010;SDS011;10663;42.714;23.274;2022-08-19T02:19:19;9.32;;;7.20;;
21010;SDS011;10663;42.714;23.274;2022-08-19T02:20:50;11.40;;;7.45;;
21010;SDS011;10663;42.714;23.274;2022-08-19T02:22:22;8.85;;;7.22;;
21010;SDS011;10663;42.714;23.274;2022-08-19T02:23:53;8.13;;;7.20;;
21010;SDS011;10663;42.714;23.274;2022-08-19T02:25:24;8.35;;;7.32;;
21010;SDS011;10663;42.714;23.274;2022-08-19T02:26:55;7.80;;;7.10;;
21010;SDS011;10663;42.714;23.274;2022-08-19T02:28:26;8.35;;;7.03;;
21010;SDS011;10663;42.714;23.274;2022-08-19T02:29:56;8.40;;;7.57;;
21010;SDS011;10663;42.714;23.274;2022-08-19T02:31:27;9.30;;;6.95;;
21010;SDS011;10663;42.714;23.274;2022-08-19T02:32:58;8.88;;;7.00;;
21010;SDS011;10663;42.714;23.274;2022-08-19T02:34:29;8.75;;;7.20;;
21010;SDS011;10663;42.714;23.274;2022-08-19T02:36:02;10.20;;;7.70;;
21010;SDS011;10663;42.714;23.274;2022-08-19T02:37:35;9.13;;;7.30;;
21010;SDS011;10663;42.714;23.274;2022-08-19T02:39:24;9.63;;;7.30;;
21010;SDS011;10663;42.714;23.274;2022-08-19T02:40:56;10.47;;;7.37;;
21010;SDS011;10663;42.714;23.274;2022-08-19T02:42:29;10.07;;;7.97;;
21010;SDS011;10663;42.714;23.274;2022-08-19T02:44:01;10.07;;;7.85;;
21010;SDS011;10663;42.714;23.274;2022-08-19T02:45:35;10.98;;;8.65;;
21010;SDS011;10663;42.714;23.274;2022-08-19T02:47:08;10.23;;;8.20;;
21010;SDS011;10663;42.714;23.274;2022-08-19T02:48:40;9.40;;;8.23;;
21010;SDS011;10663;42.714;23.274;2022-08-19T02:50:10;10.27;;;8.63;;
21010;SDS011;10663;42.714;23.274;2022-08-19T02:51:44;9.75;;;7.50;;
21010;SDS011;10663;42.714;23.274;2022-08-19T02:53:16;10.05;;;8.27;;
21010;SDS011;10663;42.714;23.274;2022-08-19T02:54:46;9.25;;;8.23;;
21010;SDS011;10663;42.714;23.274;2022-08-19T02:56:17;8.63;;;7.65;;
21010;SDS011;10663;42.714;23.274;2022-08-19T02:57:49;10.03;;;7.53;;
21010;SDS011;10663;42.714;23.274;2022-08-19T02:59:20;9.40;;;7.70;;
21010;SDS011;10663;42.714;23.274;2022-08-19T03:00:52;9.55;;;8.07;;
21010;SDS011;10663;42.714;23.274;2022-08-19T03:02:24;10.02;;;7.97;;
21010;SDS011;10663;42.714;23.274;2022-08-19T03:03:55;9.55;;;8.45;;
21010;SDS011;10663;42.714;23.274;2022-08-19T03:05:27;9.85;;;8.00;;
21010;SDS011;10663;42.714;23.274;2022-08-19T03:06:58;8.82;;;7.85;;
21010;SDS011;10663;42.714;23.274;2022-08-19T03:08:29;9.55;;;8.00;;
21010;SDS011;10663;42.714;23.274;2022-08-19T03:10:00;9.38;;;7.78;;
21010;SDS011;10663;42.714;23.274;2022-08-19T03:11:31;10.73;;;8.53;;
21010;SDS011;10663;42.714;23.274;2022-08-19T03:13:02;10.32;;;7.90;;
21010;SDS011;10663;42.714;23.274;2022-08-19T03:14:33;9.15;;;8.07;;
21010;SDS011;10663;42.714;23.274;2022-08-19T03:16:05;8.98;;;7.93;;
21010;SDS011;10663;42.714;23.274;2022-08-19T03:17:36;10.30;;;8.15;;
21010;SDS011;10663;42.714;23.274;2022-08-19T03:19:07;9.77;;;8.13;;
21010;SDS011;10663;42.714;23.274;2022-08-19T03:20:45;10.15;;;8.00;;
21010;SDS011;10663;42.714;23.274;2022-08-19T03:22:18;10.60;;;8.60;;
21010;SDS011;10663;42.714;23.274;2022-08-19T03:23:49;12.05;;;8.45;;
21010;SDS011;10663;42.714;23.274;2022-08-19T03:25:20;9.20;;;8.30;;
21010;SDS011;10663;42.714;23.274;2022-08-19T03:26:52;9.73;;;8.52;;
21010;SDS011;10663;42.714;23.274;2022-08-19T03:28:28;10.05;;;8.30;;
21010;SDS011;10663;42.714;23.274;2022-08-19T03:29:58;9.30;;;8.40;;
21010;SDS011;10663;42.714;23.274;2022-08-19T03:31:29;11.10;;;9.18;;
21010;SDS011;10663;42.714;23.274;2022-08-19T03:33:01;9.50;;;8.45;;
21010;SDS011;10663;42.714;23.274;2022-08-19T03:34:33;9.85;;;8.85;;
21010;SDS011;10663;42.714;23.274;2022-08-19T03:37:38;9.68;;;8.65;;
21010;SDS011;10663;42.714;23.274;2022-08-19T03:39:10;12.63;;;8.75;;
21010;SDS011;10663;42.714;23.274;2022-08-19T03:40:41;11.63;;;9.02;;
21010;SDS011;10663;42.714;23.274;2022-08-19T03:42:13;11.13;;;8.95;;
21010;SDS011;10663;42.714;23.274;2022-08-19T03:43:44;12.32;;;10.68;;
21010;SDS011;10663;42.714;23.274;2022-08-19T03:45:18;10.80;;;9.55;;
21010;SDS011;10663;42.714;23.274;2022-08-19T03:46:51;10.73;;;9.30;;
21010;SDS011;10663;42.714;23.274;2022-08-19T03:48:25;10.27;;;9.07;;
21010;SDS011;10663;42.714;23.274;2022-08-19T03:49:56;10.40;;;9.30;;
21010;SDS011;10663;42.714;23.274;2022-08-19T03:51:28;13.67;;;11.53;;
21010;SDS011;10663;42.714;23.274;2022-08-19T03:53:01;11.43;;;10.18;;
21010;SDS011;10663;42.714;23.274;2022-08-19T03:54:32;10.70;;;9.37;;
21010;SDS011;10663;42.714;23.274;2022-08-19T03:56:03;13.25;;;9.80;;
21010;SDS011;10663;42.714;23.274;2022-08-19T03:57:34;11.85;;;8.98;;
21010;SDS011;10663;42.714;23.274;2022-08-19T03:59:06;11.13;;;9.60;;
21010;SDS011;10663;42.714;23.274;2022-08-19T04:00:42;10.00;;;9.00;;
21010;SDS011;10663;42.714;23.274;2022-08-19T04:02:13;9.70;;;8.70;;
21010;SDS011;10663;42.714;23.274;2022-08-19T04:03:44;14.17;;;10.70;;
21010;SDS011;10663;42.714;23.274;2022-08-19T04:05:16;15.63;;;10.65;;
21010;SDS011;10663;42.714;23.274;2022-08-19T04:06:47;13.50;;;9.70;;
21010;SDS011;10663;42.714;23.274;2022-08-19T04:08:19;12.82;;;10.05;;
21010;SDS011;10663;42.714;23.274;2022-08-19T04:09:50;15.07;;;10.50;;
21010;SDS011;10663;42.714;23.274;2022-08-19T04:11:23;11.25;;;9.68;;
21010;SDS011;10663;42.714;23.274;2022-08-19T04:12:56;16.05;;;11.93;;
21010;SDS011;10663;42.714;23.274;2022-08-19T04:14:27;13.80;;;10.63;;
21010;SDS011;10663;42.714;23.274;2022-08-19T04:16:04;12.88;;;11.00;;
21010;SDS011;10663;42.714;23.274;2022-08-19T04:17:35;14.85;;;10.93;;
21010;SDS011;10663;42.714;23.274;2022-08-19T04:19:06;11.30;;;9.45;;
21010;SDS011;10663;42.714;23.274;2022-08-19T04:20:44;14.38;;;9.85;;
21010;SDS011;10663;42.714;23.274;2022-08-19T04:22:16;13.23;;;10.93;;
21010;SDS011;10663;42.714;23.274;2022-08-19T04:23:48;15.07;;;11.25;;
21010;SDS011;10663;42.714;23.274;2022-08-19T04:25:19;15.77;;;10.82;;
21010;SDS011;10663;42.714;23.274;2022-08-19T04:26:51;11.20;;;10.00;;
21010;SDS011;10663;42.714;23.274;2022-08-19T04:28:22;13.73;;;9.98;;
21010;SDS011;10663;42.714;23.274;2022-08-19T04:29:53;14.10;;;11.07;;
21010;SDS011;10663;42.714;23.274;2022-08-19T04:31:26;12.50;;;9.50;;
21010;SDS011;10663;42.714;23.274;2022-08-19T04:32:59;19.07;;;12.17;;
21010;SDS011;10663;42.714;23.274;2022-08-19T04:34:30;13.00;;;11.15;;
21010;SDS011;10663;42.714;23.274;2022-08-19T04:36:00;13.90;;;10.57;;
21010;SDS011;10663;42.714;23.274;2022-08-19T04:37:31;18.75;;;13.60;;
21010;SDS011;10663;42.714;23.274;2022-08-19T04:39:05;19.02;;;14.55;;
21010;SDS011;10663;42.714;23.274;2022-08-19T04:40:41;14.15;;;11.90;;
21010;SDS011;10663;42.714;23.274;2022-08-19T04:42:32;14.80;;;11.20;;
21010;SDS011;10663;42.714;23.274;2022-08-19T04:44:09;14.20;;;10.45;;
21010;SDS011;10663;42.714;23.274;2022-08-19T04:45:44;10.70;;;9.43;;
21010;SDS011;10663;42.714;23.274;2022-08-19T04:47:16;14.90;;;11.98;;
21010;SDS011;10663;42.714;23.274;2022-08-19T04:48:47;14.43;;;11.13;;
21010;SDS011;10663;42.714;23.274;2022-08-19T04:50:17;15.15;;;11.80;;
21010;SDS011;10663;42.714;23.274;2022-08-19T04:51:50;14.95;;;11.57;;
21010;SDS011;10663;42.714;23.274;2022-08-19T04:53:25;12.60;;;10.02;;
21010;SDS011;10663;42.714;23.274;2022-08-19T04:55:00;11.02;;;9.82;;
21010;SDS011;10663;42.714;23.274;2022-08-19T04:56:31;17.88;;;13.23;;
21010;SDS011;10663;42.714;23.274;2022-08-19T04:58:02;24.13;;;18.02;;
21010;SDS011;10663;42.714;23.274;2022-08-19T04:59:33;22.02;;;16.52;;
21010;SDS011;10663;42.714;23.274;2022-08-19T05:01:04;19.90;;;15.53;;
21010;SDS011;10663;42.714;23.274;2022-08-19T05:02:36;15.85;;;12.25;;
21010;SDS011;10663;42.714;23.274;2022-08-19T05:04:07;14.43;;;12.05;;
21010;SDS011;10663;42.714;23.274;2022-08-19T05:05:41;15.60;;;10.38;;
21010;SDS011;10663;42.714;23.274;2022-08-19T05:07:13;13.32;;;10.73;;
21010;SDS011;10663;42.714;23.274;2022-08-19T05:08:43;12.27;;;9.32;;
21010;SDS011;10663;42.714;23.274;2022-08-19T05:10:15;10.03;;;9.00;;
21010;SDS011;10663;42.714;23.274;2022-08-19T05:11:49;12.35;;;9.82;;
21010;SDS011;10663;42.714;23.274;2022-08-19T05:13:23;13.65;;;10.65;;
21010;SDS011;10663;42.714;23.274;2022-08-19T05:14:54;12.73;;;9.02;;
21010;SDS011;10663;42.714;23.274;2022-08-19T05:16:27;13.82;;;10.10;;
21010;SDS011;10663;42.714;23.274;2022-08-19T05:17:58;15.13;;;9.95;;
21010;SDS011;10663;42.714;23.274;2022-08-19T05:19:47;13.27;;;9.63;;
21010;SDS011;10663;42.714;23.274;2022-08-19T05:21:38;12.37;;;9.13;;
21010;SDS011;10663;42.714;23.274;2022-08-19T05:23:29;11.35;;;9.43;;
21010;SDS011;10663;42.714;23.274;2022-08-19T05:25:05;9.85;;;8.85;;
21010;SDS011;10663;42.714;23.274;2022-08-19T05:26:39;11.02;;;9.30;;
21010;SDS011;10663;42.714;23.274;2022-08-19T05:28:13;12.52;;;9.57;;
21010;SDS011;10663;42.714;23.274;2022-08-19T05:29:44;16.38;;;9.70;;
21010;SDS011;10663;42.714;23.274;2022-08-19T05:31:14;12.60;;;9.37;;
21010;SDS011;10663;42.714;23.274;2022-08-19T05:32:45;10.77;;;8.95;;
21010;SDS011;10663;42.714;23.274;2022-08-19T05:34:17;10.90;;;9.45;;
21010;SDS011;10663;42.714;23.274;2022-08-19T05:35:51;10.25;;;9.00;;
21010;SDS011;10663;42.714;23.274;2022-08-19T05:37:22;10.18;;;9.18;;
21010;SDS011;10663;42.714;23.274;2022-08-19T05:38:53;14.03;;;9.60;;
21010;SDS011;10663;42.714;23.274;2022-08-19T05:40:25;11.90;;;9.40;;
21010;SDS011;10663;42.714;23.274;2022-08-19T05:41:57;11.90;;;9.50;;
21010;SDS011;10663;42.714;23.274;2022-08-19T05:43:30;15.13;;;10.45;;
21010;SDS011;10663;42.714;23.274;2022-08-19T05:45:02;11.88;;;9.75;;
21010;SDS011;10663;42.714;23.274;2022-08-19T05:46:33;12.73;;;10.57;;
21010;SDS011;10663;42.714;23.274;2022-08-19T05:48:08;16.55;;;10.45;;
21010;SDS011;10663;42.714;23.274;2022-08-19T05:49:41;12.27;;;9.80;;
21010;SDS011;10663;42.714;23.274;2022-08-19T05:51:13;12.82;;;9.88;;
21010;SDS011;10663;42.714;23.274;2022-08-19T05:52:43;10.90;;;9.33;;
21010;SDS011;10663;42.714;23.274;2022-08-19T05:54:15;13.32;;;10.73;;
21010;SDS011;10663;42.714;23.274;2022-08-19T05:55:46;14.48;;;11.43;;
21010;SDS011;10663;42.714;23.274;2022-08-19T05:57:20;13.68;;;11.32;;
21010;SDS011;10663;42.714;23.274;2022-08-19T05:58:51;12.90;;;11.02;;
21010;SDS011;10663;42.714;23.274;2022-08-19T06:00:24;14.82;;;10.65;;
21010;SDS011;10663;42.714;23.274;2022-08-19T06:01:55;16.50;;;11.80;;
21010;SDS011;10663;42.714;23.274;2022-08-19T06:03:26;15.65;;;11.73;;
21010;SDS011;10663;42.714;23.274;2022-08-19T06:04:58;14.43;;;10.52;;
21010;SDS011;10663;42.714;23.274;2022-08-19T06:06:28;14.40;;;11.20;;
21010;SDS011;10663;42.714;23.274;2022-08-19T06:07:59;11.38;;;9.65;;
21010;SDS011;10663;42.714;23.274;2022-08-19T06:09:30;30.70;;;15.25;;
21010;SDS011;10663;42.714;23.274;2022-08-19T06:12:52;29.88;;;15.30;;
21010;SDS011;10663;42.714;23.274;2022-08-19T06:14:25;19.02;;;11.75;;
21010;SDS011;10663;42.714;23.274;2022-08-19T06:15:58;10.90;;;9.15;;
21010;SDS011;10663;42.714;23.274;2022-08-19T06:17:29;9.73;;;8.70;;
21010;SDS011;10663;42.714;23.274;2022-08-19T06:19:02;12.70;;;9.68;;
21010;SDS011;10663;42.714;23.274;2022-08-19T06:20:36;10.20;;;8.75;;
21010;SDS011;10663;42.714;23.274;2022-08-19T06:22:07;13.00;;;9.73;;
21010;SDS011;10663;42.714;23.274;2022-08-19T06:23:38;11.68;;;8.82;;
21010;SDS011;10663;42.714;23.274;2022-08-19T06:25:10;13.63;;;10.60;;
21010;SDS011;10663;42.714;23.274;2022-08-19T06:26:43;12.43;;;9.73;;
21010;SDS011;10663;42.714;23.274;2022-08-19T06:28:15;10.23;;;8.80;;
21010;SDS011;10663;42.714;23.274;2022-08-19T06:29:45;13.73;;;8.90;;
21010;SDS011;10663;42.714;23.274;2022-08-19T06:31:18;11.45;;;9.00;;
21010;SDS011;10663;42.714;23.274;2022-08-19T06:32:51;10.93;;;9.50;;
21010;SDS011;10663;42.714;23.274;2022-08-19T06:34:22;15.05;;;10.88;;
21010;SDS011;10663;42.714;23.274;2022-08-19T06:35:53;12.00;;;9.32;;
21010;SDS011;10663;42.714;23.274;2022-08-19T06:37:24;13.98;;;10.25;;
21010;SDS011;10663;42.714;23.274;2022-08-19T06:38:55;11.77;;;9.52;;
21010;SDS011;10663;42.714;23.274;2022-08-19T06:40:29;12.95;;;9.57;;
21010;SDS011;10663;42.714;23.274;2022-08-19T06:42:00;11.43;;;8.38;;
21010;SDS011;10663;42.714;23.274;2022-08-19T06:43:34;12.63;;;9.57;;
21010;SDS011;10663;42.714;23.274;2022-08-19T06:45:06;11.73;;;9.00;;
21010;SDS011;10663;42.714;23.274;2022-08-19T06:46:39;14.37;;;10.10;;
21010;SDS011;10663;42.714;23.274;2022-08-19T06:48:11;11.85;;;9.70;;
21010;SDS011;10663;42.714;23.274;2022-08-19T06:49:41;11.33;;;9.73;;
21010;SDS011;10663;42.714;23.274;2022-08-19T06:51:13;11.88;;;9.30;;
21010;SDS011;10663;42.714;23.274;2022-08-19T06:52:48;11.48;;;9.43;;
21010;SDS011;10663;42.714;23.274;2022-08-19T06:54:19;13.43;;;10.05;;
21010;SDS011;10663;42.714;23.274;2022-08-19T06:55:50;11.75;;;9.55;;
21010;SDS011;10663;42.714;23.274;2022-08-19T06:57:30;14.25;;;9.80;;
21010;SDS011;10663;42.714;23.274;2022-08-19T06:59:04;15.10;;;10.50;;
21010;SDS011;10663;42.714;23.274;2022-08-19T07:00:37;14.48;;;11.35;;
21010;SDS011;10663;42.714;23.274;2022-08-19T07:02:08;13.80;;;10.52;;
21010;SDS011;10663;42.714;23.274;2022-08-19T07:03:39;10.45;;;9.38;;
21010;SDS011;10663;42.714;23.274;2022-08-19T07:05:10;11.05;;;9.15;;
21010;SDS011;10663;42.714;23.274;2022-08-19T07:06:41;12.27;;;9.27;;
21010;SDS011;10663;42.714;23.274;2022-08-19T07:08:12;10.32;;;9.00;;
21010;SDS011;10663;42.714;23.274;2022-08-19T07:09:44;11.45;;;9.70;;
21010;SDS011;10663;42.714;23.274;2022-08-19T07:11:16;10.57;;;8.60;;
21010;SDS011;10663;42.714;23.274;2022-08-19T07:12:49;12.70;;;9.32;;
21010;SDS011;10663;42.714;23.274;2022-08-19T07:14:24;11.98;;;8.80;;
21010;SDS011;10663;42.714;23.274;2022-08-19T07:15:57;11.13;;;9.00;;
21010;SDS011;10663;42.714;23.274;2022-08-19T07:17:28;10.70;;;8.53;;
21010;SDS011;10663;42.714;23.274;2022-08-19T07:18:59;12.45;;;9.27;;
21010;SDS011;10663;42.714;23.274;2022-08-19T07:20:29;9.63;;;8.57;;
21010;SDS011;10663;42.714;23.274;2022-08-19T07:22:01;11.88;;;8.60;;
21010;SDS011;10663;42.714;23.274;2022-08-19T07:23:33;11.35;;;9.10;;
21010;SDS011;10663;42.714;23.274;2022-08-19T07:25:05;10.20;;;8.73;;
21010;SDS011;10663;42.714;23.274;2022-08-19T07:26:40;11.63;;;9.20;;
21010;SDS011;10663;42.714;23.274;2022-08-19T07:28:12;11.40;;;9.43;;
21010;SDS011;10663;42.714;23.274;2022-08-19T07:29:43;12.18;;;8.63;;
21010;SDS011;10663;42.714;23.274;2022-08-19T07:31:17;10.50;;;8.50;;
21010;SDS011;10663;42.714;23.274;2022-08-19T07:32:50;11.80;;;8.68;;
21010;SDS011;10663;42.714;23.274;2022-08-19T07:34:23;13.57;;;8.45;;
21010;SDS011;10663;42.714;23.274;2022-08-19T07:35:54;12.68;;;8.82;;
21010;SDS011;10663;42.714;23.274;2022-08-19T07:37:25;10.45;;;8.73;;
21010;SDS011;10663;42.714;23.274;2022-08-19T07:39:00;9.57;;;7.85;;
21010;SDS011;10663;42.714;23.274;2022-08-19T07:40:33;11.30;;;8.20;;
21010;SDS011;10663;42.714;23.274;2022-08-19T07:42:06;10.35;;;8.48;;
21010;SDS011;10663;42.714;23.274;2022-08-19T07:43:40;10.73;;;8.10;;
21010;SDS011;10663;42.714;23.274;2022-08-19T07:45:13;10.27;;;8.20;;
21010;SDS011;10663;42.714;23.274;2022-08-19T07:46:48;10.65;;;7.45;;
21010;SDS011;10663;42.714;23.274;2022-08-19T07:48:25;9.88;;;8.20;;
21010;SDS011;10663;42.714;23.274;2022-08-19T07:49:57;11.57;;;7.78;;
21010;SDS011;10663;42.714;23.274;2022-08-19T07:51:28;8.00;;;7.20;;
21010;SDS011;10663;42.714;23.274;2022-08-19T07:52:59;9.23;;;7.80;;
21010;SDS011;10663;42.714;23.274;2022-08-19T07:54:32;10.63;;;7.18;;
21010;SDS011;10663;42.714;23.274;2022-08-19T07:56:05;8.05;;;6.82;;
21010;SDS011;10663;42.714;23.274;2022-08-19T07:57:37;10.20;;;7.20;;
21010;SDS011;10663;42.714;23.274;2022-08-19T07:59:09;8.80;;;7.18;;
21010;SDS011;10663;42.714;23.274;2022-08-19T08:00:40;8.73;;;6.90;;
21010;SDS011;10663;42.714;23.274;2022-08-19T08:02:12;8.70;;;7.22;;
21010;SDS011;10663;42.714;23.274;2022-08-19T08:03:43;11.60;;;7.47;;
21010;SDS011;10663;42.714;23.274;2022-08-19T08:05:33;12.23;;;8.70;;
21010;SDS011;10663;42.714;23.274;2022-08-19T08:07:23;9.27;;;7.40;;
21010;SDS011;10663;42.714;23.274;2022-08-19T08:09:13;8.60;;;6.50;;
21010;SDS011;10663;42.714;23.274;2022-08-19T08:10:52;9.65;;;7.22;;
21010;SDS011;10663;42.714;23.274;2022-08-19T08:12:28;10.40;;;8.23;;
21010;SDS011;10663;42.714;23.274;2022-08-19T08:14:04;10.70;;;7.93;;
21010;SDS011;10663;42.714;23.274;2022-08-19T08:15:37;9.65;;;7.35;;
21010;SDS011;10663;42.714;23.274;2022-08-19T08:17:09;8.23;;;7.05;;
21010;SDS011;10663;42.714;23.274;2022-08-19T08:18:41;8.60;;;7.10;;
21010;SDS011;10663;42.714;23.274;2022-08-19T08:20:13;11.18;;;6.65;;
21010;SDS011;10663;42.714;23.274;2022-08-19T08:21:45;10.80;;;7.40;;
21010;SDS011;10663;42.714;23.274;2022-08-19T08:23:16;7.95;;;6.47;;
21010;SDS011;10663;42.714;23.274;2022-08-19T08:24:52;7.97;;;6.57;;
21010;SDS011;10663;42.714;23.274;2022-08-19T08:26:23;7.60;;;6.88;;
21010;SDS011;10663;42.714;23.274;2022-08-19T08:27:55;8.63;;;6.70;;
21010;SDS011;10663;42.714;23.274;2022-08-19T08:29:27;8.10;;;6.15;;
21010;SDS011;10663;42.714;23.274;2022-08-19T08:31:00;8.85;;;6.63;;
21010;SDS011;10663;42.714;23.274;2022-08-19T08:32:31;8.67;;;6.73;;
21010;SDS011;10663;42.714;23.274;2022-08-19T08:34:02;8.23;;;6.60;;
21010;SDS011;10663;42.714;23.274;2022-08-19T08:35:33;7.85;;;6.78;;
21010;SDS011;10663;42.714;23.274;2022-08-19T08:37:05;7.43;;;6.28;;
21010;SDS011;10663;42.714;23.274;2022-08-19T08:38:38;9.50;;;6.50;;
21010;SDS011;10663;42.714;23.274;2022-08-19T08:40:18;7.47;;;6.57;;
21010;SDS011;10663;42.714;23.274;2022-08-19T08:42:05;7.63;;;6.10;;
21010;SDS011;10663;42.714;23.274;2022-08-19T08:43:51;7.55;;;6.45;;
21010;SDS011;10663;42.714;23.274;2022-08-19T08:45:24;7.78;;;6.22;;
21010;SDS011;10663;42.714;23.274;2022-08-19T08:46:58;6.55;;;5.70;;
21010;SDS011;10663;42.714;23.274;2022-08-19T08:48:36;7.30;;;5.70;;
21010;SDS011;10663;42.714;23.274;2022-08-19T08:52:29;7.32;;;6.20;;
21010;SDS011;10663;42.714;23.274;2022-08-19T08:54:01;8.57;;;5.93;;
21010;SDS011;10663;42.714;23.274;2022-08-19T08:55:37;6.72;;;6.05;;
21010;SDS011;10663;42.714;23.274;2022-08-19T08:57:10;6.85;;;5.90;;
21010;SDS011;10663;42.714;23.274;2022-08-19T08:58:57;6.85;;;5.93;;
21010;SDS011;10663;42.714;23.274;2022-08-19T09:00:33;7.35;;;6.40;;
21010;SDS011;10663;42.714;23.274;2022-08-19T09:02:07;6.20;;;5.60;;
21010;SDS011;10663;42.714;23.274;2022-08-19T09:03:40;7.55;;;5.85;;
21010;SDS011;10663;42.714;23.274;2022-08-19T09:05:13;7.00;;;5.60;;
21010;SDS011;10663;42.714;23.274;2022-08-19T09:08:59;6.33;;;5.17;;
21010;SDS011;10663;42.714;23.274;2022-08-19T09:10:38;6.10;;;4.67;;
21010;SDS011;10663;42.714;23.274;2022-08-19T09:13:49;5.28;;;4.78;;
21010;SDS011;10663;42.714;23.274;2022-08-19T09:15:35;7.93;;;5.60;;
21010;SDS011;10663;42.714;23.274;2022-08-19T09:17:15;5.80;;;5.30;;